Elberta, UT (84626)

5:37 PM MDT on August 29, 2015 (GMT -0600)
West Desert Airpark | | Change Station
CLOSE
Current Station
Personal Weather Station
Location: Fairfield, UT
Elevation: 4888 ft
Nearby Weather Stations

Elev 4888 ft 40.24 °N, 112.09 °W | Updated 4 seconds ago

Partly Cloudy
Partly Cloudy
94.6 °F
Feels Like 90 °F
N
10.1
Wind Variable Wind from SSW
Gusts 13.0 mph

Today
High -- | Low -- °F
--% Chance of Precip.
Yesterday
High -- | Low -- °F
Precip. -- in
6:52 AM 8:04 PM
Full, 100% visible
Pressure 29.99 in
Visibility 15.0 miles
Clouds Scattered Clouds 10000 ft
Mostly Cloudy 16000 ft
Heat Index 90 °F
Dew Point 34 °F
Humidity 12%
Rainfall 0.00 in
Snow Depth Not available.
UV 1.3 out of 12
Pollen 9.20 out of 12
Air Quality Not available.
Flu Activity Not available.
METAR KPVU 292255Z VRB03KT 15SM SCT100 BKN160 33/06 A2999
Pressure 29.99 in
Visibility 15.0 miles
Clouds Scattered Clouds 10000 ft
Mostly Cloudy 16000 ft
Heat Index 90 °F
Dew Point 34 °F
Humidity 12%
Rainfall 0.00 in
Snow Depth Not available.
UV 1.3 out of 12
Pollen 9.20 out of 12
Air Quality Not available.
Flu Activity Not available.
METAR KPVU 292255Z VRB03KT 15SM SCT100 BKN160 33/06 A2999

10-Day Weather Forecast

×

Almanac

Astronomy

Aug. 29, 2015 Rise Set
Actual Time
Civil Twilight
Nautical Twilight
Astronomical Twilight
Moon
Length of Visible Light
Length of Day
Tomorrow will be .
, % of the Moon is Illuminated

Today's Extremes

State Highs State Lows

Community

WunderPhotos

Upload Photos

1,850,783 photos uploaded!

WunderBlogs® & News

Nearby

Air Quality

  Air Quality AQ Index Pollutant
Not available.

Snow Depth

Station Depth Elevation

Earthquake Activity

City Distance Mag. Time & Date
Minimum magnitude displayed is 2.5.

Coastal Water Temperatures

Place Temperature

Stations

Nearby Weather Stations

Station Location Temp. Windchill Dew Point Humidity Wind Precip. Elev Updated Type